Palmyra, VA

11:53 PM EST on December 22, 2014 (GMT -0500)
Lake Monticello | Change Station
CLOSE
Current Station
Personal Weather Station
Location: Lake Monticello, VA
Elevation: 385 ft
Nearby Weather Stations

Elev 385 ft 37.93 °N, 78.34 °W | Updated 3 minutes ago

Overcast
Overcast
36.7 °F
Feels Like 37 °F
N
0.0
Wind Variable Wind from North
Gusts 0.0 mph

Today
High -- | Low -- °F
--% Chance of Precip.
Yesterday
High -- | Low -- °F
Precip. -- in
7:26 AM 4:58 PM
New Moon, 2% visible
Pressure 30.09 in
Visibility 1.0 miles
Clouds
Windchill 37 °F
Dew Point 33 °F
Humidity 87%
Rainfall 0.00 in
Snow Depth Not available.
UV Not available.
Pollen .10 out of 12
Air Quality Not available.
Flu Activity Not available.
METAR KCHO 230353Z 03003KT 1SM -RA BR VV004 02/01 A3008 RMK AO2 RAB24 SLP190 P0001 I1000 T00170006

More Conditions Fewer Conditions

Pressure 30.09 in
Visibility 1.0 miles
Clouds
Windchill 37 °F
Dew Point 33 °F
Humidity 87%
Rainfall 0.00 in
Snow Depth Not available.
UV Not available.
Pollen .10 out of 12
Air Quality Not available.
Flu Activity Not available.
METAR KCHO 230353Z 03003KT 1SM -RA BR VV004 02/01 A3008 RMK AO2 RAB24 SLP190 P0001 I1000 T00170006

More Conditions Fewer Conditions

10-Day Weather Forecast

Almanac

Astronomy

Dec. 22, 2014 Rise Set
Actual Time
Civil Twilight
Nautical Twilight
Astronomical Twilight
Moon
Length of Visible Light
Length of Day
Tomorrow will be .
, % of the Moon is Illuminated

Today's Extremes

State Highs State Lows

Community

WunderPhotos

Upload Photos

1,779,778 photos uploaded!

WunderBlogs® & News

Nearby

Air Quality

  Air Quality AQ Index Pollutant
Not available.

Snow Depth

Station Depth Elevation

Earthquake Activity

City Distance Mag. Time & Date
Minimum magnitude displayed is 2.5.

Coastal Water Temperatures

Place Temperature

Nearby Weather Stations